Time,TemperatureF,DewpointF,PressureIn,WindDirection,WindDirectionDegrees,WindSpeedMPH,WindSpeedGustMPH,Humidity,HourlyPrecipIn,Conditions,Clouds,dailyrainin,SoftwareType,DateUTC
2013-05-12 00:00:00,70.5,38.4,29.96,SW,224,0.0,0.0,31,0.00,,,0.00,Wunderground v.1.15,2013-05-12 07:00:00,
2013-05-12 00:06:00,69.6,38.4,29.96,SW,231,0.0,0.0,32,0.00,,,0.00,Wunderground v.1.15,2013-05-12 07:06:00,
2013-05-12 00:11:00,69.5,38.3,29.96,SW,224,0.0,0.0,32,0.00,,,0.00,Wunderground v.1.15,2013-05-12 07:11:00,
2013-05-12 00:16:00,69.8,37.8,29.96,WSW,238,0.0,0.0,31,0.00,,,0.00,Wunderground v.1.15,2013-05-12 07:16:00,
2013-05-12 00:21:00,70.5,37.6,29.96,SW,223,0.0,0.0,30,0.00,,,0.00,Wunderground v.1.15,2013-05-12 07:21:00,
2013-05-12 00:26:00,70.7,37.7,29.96,WSW,254,0.0,0.0,30,0.00,,,0.00,Wunderground v.1.15,2013-05-12 07:26:00,
2013-05-12 00:31:00,70.1,38.0,29.96,SW,233,0.0,0.0,31,0.00,,,0.00,Wunderground v.1.15,2013-05-12 07:31:00,
2013-05-12 00:36:00,69.8,37.8,29.96,WSW,242,0.0,0.0,31,0.00,,,0.00,Wunderground v.1.15,2013-05-12 07:36:00,
2013-05-12 00:42:00,69.6,37.6,29.96,West,259,0.0,0.0,31,0.00,,,0.00,Wunderground v.1.15,2013-05-12 07:42:00,
2013-05-12 00:47:00,69.3,37.3,29.96,WSW,243,0.0,0.0,31,0.00,,,0.00,Wunderground v.1.15,2013-05-12 07:47:00,
2013-05-12 00:52:00,69.1,38.0,29.96,SW,220,0.0,0.0,32,0.00,,,0.00,Wunderground v.1.15,2013-05-12 07:52:00,
2013-05-12 00:58:00,68.6,37.5,29.96,SW,219,0.0,0.0,32,0.00,,,0.00,Wunderground v.1.15,2013-05-12 07:58:00,
2013-05-12 01:03:00,68.8,37.7,29.96,SW,231,0.0,0.0,32,0.00,,,0.00,Wunderground v.1.15,2013-05-12 08:03:00,
2013-05-12 01:08:00,68.6,38.3,29.97,WSW,245,0.0,0.0,33,0.00,,,0.00,Wunderground v.1.15,2013-05-12 08:08:00,
2013-05-12 01:13:00,68.3,38.1,29.97,SW,220,0.0,0.0,33,0.00,,,0.00,Wunderground v.1.15,2013-05-12 08:13:00,
2013-05-12 01:18:00,68.6,36.7,29.96,WSW,240,0.0,0.0,31,0.00,,,0.00,Wunderground v.1.15,2013-05-12 08:18:00,
2013-05-12 01:23:00,70.0,36.3,29.96,SW,224,0.0,0.0,29,0.00,,,0.00,Wunderground v.1.15,2013-05-12 08:23:00,
2013-05-12 01:29:00,71.3,35.6,29.96,SW,222,0.0,0.0,27,0.00,,,0.00,Wunderground v.1.15,2013-05-12 08:29:00,
2013-05-12 01:34:00,71.2,35.5,29.96,WSW,244,0.0,0.0,27,0.00,,,0.00,Wunderground v.1.15,2013-05-12 08:34:00,
2013-05-12 01:39:00,71.2,35.5,29.96,West,262,0.0,0.0,27,0.00,,,0.00,Wunderground v.1.15,2013-05-12 08:39:00,
2013-05-12 01:45:00,70.6,35.9,29.96,SSW,212,0.0,0.0,28,0.00,,,0.00,Wunderground v.1.15,2013-05-12 08:45:00,
2013-05-12 01:50:00,71.5,34.8,29.96,West,266,0.0,0.0,26,0.00,,,0.00,Wunderground v.1.15,2013-05-12 08:50:00,
2013-05-12 01:55:00,71.0,35.3,29.96,WSW,241,0.0,0.0,27,0.00,,,0.00,Wunderground v.1.15,2013-05-12 08:55:00,
2013-05-12 02:00:00,71.6,34.9,29.96,SW,233,0.0,0.0,26,0.00,,,0.00,Wunderground v.1.15,2013-05-12 09:00:00,
2013-05-12 02:06:00,70.6,35.9,29.96,South,186,0.0,0.0,28,0.00,,,0.00,Wunderground v.1.15,2013-05-12 09:06:00,
2013-05-12 02:11:00,70.3,35.6,29.96,SSW,210,0.0,0.0,28,0.00,,,0.00,Wunderground v.1.15,2013-05-12 09:11:00,
2013-05-12 02:16:00,69.4,36.6,29.96,SSW,200,0.0,0.0,30,0.00,,,0.00,Wunderground v.1.15,2013-05-12 09:16:00,
2013-05-12 02:21:00,68.7,36.0,29.96,SW,227,0.0,0.0,30,0.00,,,0.00,Wunderground v.1.15,2013-05-12 09:21:00,
2013-05-12 02:26:00,68.4,35.7,29.96,WSW,247,0.0,0.0,30,0.00,,,0.00,Wunderground v.1.15,2013-05-12 09:26:00,
2013-05-12 02:31:00,69.3,35.7,29.95,SW,220,0.0,0.0,29,0.00,,,0.00,Wunderground v.1.15,2013-05-12 09:31:00,
2013-05-12 02:37:00,69.6,35.0,29.95,SW,233,0.0,0.0,28,0.00,,,0.00,Wunderground v.1.15,2013-05-12 09:37:00,
2013-05-12 02:42:00,69.6,35.0,29.95,SW,222,0.0,0.0,28,0.00,,,0.00,Wunderground v.1.15,2013-05-12 09:42:00,
2013-05-12 02:47:00,69.8,35.2,29.95,WSW,246,0.0,0.0,28,0.00,,,0.00,Wunderground v.1.15,2013-05-12 09:47:00,
2013-05-12 02:52:00,70.6,35.0,29.95,WSW,238,0.0,0.0,27,0.00,,,0.00,Wunderground v.1.15,2013-05-12 09:52:00,
2013-05-12 02:57:00,69.8,35.2,29.96,WSW,252,0.0,0.0,28,0.00,,,0.00,Wunderground v.1.15,2013-05-12 09:57:00,
2013-05-12 03:03:00,69.2,35.6,29.96,WSW,257,0.0,0.0,29,0.00,,,0.00,Wunderground v.1.15,2013-05-12 10:03:00,
2013-05-12 03:08:00,69.5,35.8,29.96,SW,231,0.0,0.0,29,0.00,,,0.00,Wunderground v.1.15,2013-05-12 10:08:00,
2013-05-12 03:13:00,69.3,35.7,29.95,WSW,243,0.0,0.0,29,0.00,,,0.00,Wunderground v.1.15,2013-05-12 10:13:00,
2013-05-12 03:19:00,69.0,35.4,29.96,SW,217,0.0,0.0,29,0.00,,,0.00,Wunderground v.1.15,2013-05-12 10:19:00,
2013-05-12 03:24:00,67.9,36.9,29.96,SW,230,0.0,0.0,32,0.00,,,0.00,Wunderground v.1.15,2013-05-12 10:24:00,
2013-05-12 03:29:00,67.1,37.0,29.96,WSW,248,0.0,0.0,33,0.00,,,0.00,Wunderground v.1.15,2013-05-12 10:29:00,
2013-05-12 03:34:00,66.6,36.6,29.97,North,353,0.0,0.0,33,0.00,,,0.00,Wunderground v.1.15,2013-05-12 10:34:00,
2013-05-12 03:39:00,65.6,36.5,29.97,NW,314,0.0,0.0,34,0.00,,,0.00,Wunderground v.1.15,2013-05-12 10:39:00,
2013-05-12 03:45:00,65.4,36.3,29.97,WSW,237,0.0,0.0,34,0.00,,,0.00,Wunderground v.1.15,2013-05-12 10:45:00,
2013-05-12 03:50:00,65.3,36.9,29.97,WSW,245,0.0,0.0,35,0.00,,,0.00,Wunderground v.1.15,2013-05-12 10:50:00,
2013-05-12 03:55:00,64.7,36.4,29.97,WSW,245,0.0,0.0,35,0.00,,,0.00,Wunderground v.1.15,2013-05-12 10:55:00,
2013-05-12 04:00:00,64.3,36.0,29.97,WSW,245,0.0,0.0,35,0.00,,,0.00,Wunderground v.1.15,2013-05-12 11:00:00,
2013-05-12 04:06:00,64.3,38.1,29.97,WSW,237,0.0,0.0,38,0.00,,,0.00,Wunderground v.1.15,2013-05-12 11:06:00,
2013-05-12 04:11:00,64.3,38.8,29.97,SW,233,0.0,0.0,39,0.00,,,0.00,Wunderground v.1.15,2013-05-12 11:11:00,
2013-05-12 04:16:00,64.0,38.5,29.97,SW,229,0.0,1.0,39,0.00,,,0.00,Wunderground v.1.15,2013-05-12 11:16:00,
2013-05-12 04:21:00,63.3,39.8,29.97,SW,229,1.0,3.0,42,0.00,,,0.00,Wunderground v.1.15,2013-05-12 11:21:00,
2013-05-12 04:27:00,63.7,36.9,29.97,WSW,239,3.0,5.0,37,0.00,,,0.00,Wunderground v.1.15,2013-05-12 11:27:00,
2013-05-12 04:32:00,64.4,36.8,29.97,WSW,250,4.0,4.0,36,0.00,,,0.00,Wunderground v.1.15,2013-05-12 11:32:00,
2013-05-12 04:37:00,64.3,36.8,29.97,WSW,241,4.0,5.0,36,0.00,,,0.00,Wunderground v.1.15,2013-05-12 11:37:00,
2013-05-12 04:42:00,63.9,36.4,29.96,SW,235,4.0,4.0,36,0.00,,,0.00,Wunderground v.1.15,2013-05-12 11:42:00,
2013-05-12 04:48:00,63.7,35.5,29.96,SW,233,5.0,8.0,35,0.00,,,0.00,Wunderground v.1.15,2013-05-12 11:48:00,
2013-05-12 04:53:00,64.3,36.0,29.97,WSW,245,6.0,6.0,35,0.00,,,0.00,Wunderground v.1.15,2013-05-12 11:53:00,
2013-05-12 04:58:00,64.6,35.6,29.97,WSW,245,5.0,6.0,34,0.00,,,0.00,Wunderground v.1.15,2013-05-12 11:58:00,
2013-05-12 05:03:00,64.3,36.0,29.97,WSW,244,4.0,5.0,35,0.00,,,0.00,Wunderground v.1.15,2013-05-12 12:03:00,
2013-05-12 05:08:00,63.8,35.6,29.97,WSW,243,2.0,5.0,35,0.00,,,0.00,Wunderground v.1.15,2013-05-12 12:08:00,
2013-05-12 05:13:00,63.1,35.7,29.97,SW,224,2.0,4.0,36,0.00,,,0.00,Wunderground v.1.15,2013-05-12 12:13:00,
2013-05-12 05:19:00,62.5,35.9,29.97,SW,233,3.0,5.0,37,0.00,,,0.00,Wunderground v.1.15,2013-05-12 12:19:00,
2013-05-12 05:24:00,62.9,36.2,29.97,SW,227,2.0,3.0,37,0.00,,,0.00,Wunderground v.1.15,2013-05-12 12:24:00,
2013-05-12 05:29:00,62.5,35.9,29.97,SW,229,0.0,3.0,37,0.00,,,0.00,Wunderground v.1.15,2013-05-12 12:29:00,
2013-05-12 05:34:00,62.1,35.5,29.97,SW,229,0.0,0.0,37,0.00,,,0.00,Wunderground v.1.15,2013-05-12 12:34:00,
2013-05-12 05:40:00,62.4,35.8,29.97,SW,229,0.0,0.0,37,0.00,,,0.00,Wunderground v.1.15,2013-05-12 12:40:00,
2013-05-12 05:45:00,61.9,36.0,29.97,SW,219,1.0,3.0,38,0.00,,,0.00,Wunderground v.1.15,2013-05-12 12:45:00,
2013-05-12 05:50:00,61.4,36.2,29.97,SW,227,2.0,2.0,39,0.00,,,0.00,Wunderground v.1.15,2013-05-12 12:50:00,
2013-05-12 05:55:00,61.0,35.8,29.98,SW,217,2.0,2.0,39,0.00,,,0.00,Wunderground v.1.15,2013-05-12 12:55:00,
2013-05-12 06:00:00,60.7,36.2,29.98,WSW,251,2.0,2.0,40,0.00,,,0.00,Wunderground v.1.15,2013-05-12 13:00:00,
2013-05-12 06:06:00,60.3,36.5,29.98,SW,233,2.0,3.0,41,0.00,,,0.00,Wunderground v.1.15,2013-05-12 13:06:00,
2013-05-12 06:11:00,60.3,35.9,29.98,SW,226,2.0,4.0,40,0.00,,,0.00,Wunderground v.1.15,2013-05-12 13:11:00,
2013-05-12 06:16:00,60.7,36.8,29.99,WSW,238,3.0,4.0,41,0.00,,,0.00,Wunderground v.1.15,2013-05-12 13:16:00,
2013-05-12 06:21:00,61.2,36.0,29.98,SW,233,3.0,5.0,39,0.00,,,0.00,Wunderground v.1.15,2013-05-12 13:21:00,
2013-05-12 06:27:00,62.1,35.5,29.98,SW,230,4.0,5.0,37,0.00,,,0.00,Wunderground v.1.15,2013-05-12 13:27:00,
2013-05-12 06:33:00,62.7,36.0,29.99,SW,233,4.0,4.0,37,0.00,,,0.00,Wunderground v.1.15,2013-05-12 13:33:00,
2013-05-12 06:38:00,63.4,36.0,29.99,SW,227,4.0,6.0,36,0.00,,,0.00,Wunderground v.1.15,2013-05-12 13:38:00,
2013-05-12 06:44:00,63.9,37.1,29.99,SSW,210,2.0,3.0,37,0.00,,,0.00,Wunderground v.1.15,2013-05-12 13:44:00,
2013-05-12 06:50:00,64.3,36.8,29.99,SW,221,0.0,0.0,36,0.00,,,0.00,Wunderground v.1.15,2013-05-12 13:50:00,
2013-05-12 06:56:00,65.0,37.4,29.99,SW,230,0.0,0.0,36,0.00,,,0.00,Wunderground v.1.15,2013-05-12 13:56:00,
2013-05-12 07:02:00,65.4,39.1,29.99,SW,234,0.0,0.0,38,0.00,,,0.00,Wunderground v.1.15,2013-05-12 14:02:00,
2013-05-12 07:08:00,66.1,39.7,29.99,SW,224,0.0,0.0,38,0.00,,,0.00,Wunderground v.1.15,2013-05-12 14:08:00,
2013-05-12 07:14:00,66.7,40.3,29.99,SW,233,0.0,0.0,38,0.00,,,0.00,Wunderground v.1.15,2013-05-12 14:14:00,
2013-05-12 07:19:00,67.5,40.3,29.99,SW,214,0.0,0.0,37,0.00,,,0.00,Wunderground v.1.15,2013-05-12 14:19:00,
2013-05-12 07:25:00,68.2,40.2,29.99,SW,233,0.0,0.0,36,0.00,,,0.00,Wunderground v.1.15,2013-05-12 14:25:00,
2013-05-12 07:31:00,69.0,40.2,29.99,SSW,210,0.0,0.0,35,0.00,,,0.00,Wunderground v.1.15,2013-05-12 14:31:00,
2013-05-12 07:36:00,69.2,41.1,29.99,SSW,207,0.0,0.0,36,0.00,,,0.00,Wunderground v.1.15,2013-05-12 14:36:00,
2013-05-12 07:42:00,69.2,41.1,29.99,SSW,209,0.0,0.0,36,0.00,,,0.00,Wunderground v.1.15,2013-05-12 14:42:00,
2013-05-12 07:48:00,69.6,40.7,29.99,SW,231,0.0,0.0,35,0.00,,,0.00,Wunderground v.1.15,2013-05-12 14:48:00,
2013-05-12 07:54:00,70.4,40.7,29.99,SW,220,0.0,0.0,34,0.00,,,0.00,Wunderground v.1.15,2013-05-12 14:54:00,
2013-05-12 08:00:00,70.7,40.2,29.99,SW,217,0.0,0.0,33,0.00,,,0.00,Wunderground v.1.15,2013-05-12 15:00:00,
2013-05-12 08:06:00,71.2,39.8,29.99,SSW,205,0.0,0.0,32,0.00,,,0.00,Wunderground v.1.15,2013-05-12 15:06:00,
2013-05-12 08:12:00,71.7,40.3,29.99,SSW,212,0.0,0.0,32,0.00,,,0.00,Wunderground v.1.15,2013-05-12 15:12:00,
2013-05-12 08:18:00,72.2,39.0,29.99,SW,219,0.0,0.0,30,0.00,,,0.00,Wunderground v.1.15,2013-05-12 15:18:00,
2013-05-12 08:24:00,72.7,40.3,29.99,SW,217,0.0,0.0,31,0.00,,,0.00,Wunderground v.1.15,2013-05-12 15:24:00,
2013-05-12 08:30:00,72.9,40.5,29.99,SSW,211,0.0,0.0,31,0.00,,,0.00,Wunderground v.1.15,2013-05-12 15:30:00,
2013-05-12 08:35:00,73.6,39.4,29.99,SW,214,0.0,0.0,29,0.00,,,0.00,Wunderground v.1.15,2013-05-12 15:35:00,
2013-05-12 08:41:00,73.9,38.7,29.99,SSW,207,0.0,0.0,28,0.00,,,0.00,Wunderground v.1.15,2013-05-12 15:41:00,
2013-05-12 08:47:00,74.8,39.5,29.99,South,176,0.0,0.0,28,0.00,,,0.00,Wunderground v.1.15,2013-05-12 15:47:00,
2013-05-12 08:53:00,74.8,39.5,29.99,SSW,210,0.0,0.0,28,0.00,,,0.00,Wunderground v.1.15,2013-05-12 15:53:00,
2013-05-12 08:59:00,74.9,39.6,29.99,SSW,196,0.0,0.0,28,0.00,,,0.00,Wunderground v.1.15,2013-05-12 15:59:00,
2013-05-12 09:05:00,75.1,38.8,29.99,SW,230,0.0,0.0,27,0.00,,,0.00,Wunderground v.1.15,2013-05-12 16:05:00,
2013-05-12 09:10:00,75.5,38.2,29.99,SSW,206,0.0,0.0,26,0.00,,,0.00,Wunderground v.1.15,2013-05-12 16:10:00,
2013-05-12 09:16:00,75.7,38.4,29.99,SSW,196,0.0,0.0,26,0.00,,,0.00,Wunderground v.1.15,2013-05-12 16:16:00,
2013-05-12 09:22:00,76.2,37.8,29.99,SW,226,0.0,0.0,25,0.00,,,0.00,Wunderground v.1.15,2013-05-12 16:22:00,
2013-05-12 09:28:00,76.2,37.8,29.99,SSE,165,0.0,0.0,25,0.00,,,0.00,Wunderground v.1.15,2013-05-12 16:28:00,
2013-05-12 09:34:00,76.7,38.2,29.99,SSW,207,0.0,0.0,25,0.00,,,0.00,Wunderground v.1.15,2013-05-12 16:34:00,
2013-05-12 09:40:00,76.9,37.3,29.99,SSW,213,0.0,0.0,24,0.00,,,0.00,Wunderground v.1.15,2013-05-12 16:40:00,
2013-05-12 09:46:00,77.6,35.7,29.99,SW,221,1.0,10.0,22,0.00,,,0.00,Wunderground v.1.15,2013-05-12 16:46:00,
2013-05-12 09:52:00,77.9,36.0,29.99,SW,226,4.0,8.0,22,0.00,,,0.00,Wunderground v.1.15,2013-05-12 16:52:00,
2013-05-12 09:58:00,78.6,34.2,29.99,SSW,200,5.0,8.0,20,0.00,,,0.00,Wunderground v.1.15,2013-05-12 16:58:00,
2013-05-12 10:04:00,78.9,34.4,29.99,SW,221,2.0,5.0,20,0.00,,,0.00,Wunderground v.1.15,2013-05-12 17:04:00,
2013-05-12 10:10:00,79.4,33.5,29.98,SSE,163,0.0,0.0,19,0.00,,,0.00,Wunderground v.1.15,2013-05-12 17:10:00,
2013-05-12 10:16:00,79.9,35.2,29.98,SW,214,0.0,0.0,20,0.00,,,0.00,Wunderground v.1.15,2013-05-12 17:16:00,
2013-05-12 10:22:00,80.5,33.1,29.98,SSE,165,0.0,0.0,18,0.00,,,0.00,Wunderground v.1.15,2013-05-12 17:22:00,
2013-05-12 10:28:00,80.6,31.7,29.98,SSE,156,0.0,0.0,17,0.00,,,0.00,Wunderground v.1.15,2013-05-12 17:28:00,
2013-05-12 10:34:00,80.7,33.2,29.98,SSE,159,1.0,4.0,18,0.00,,,0.00,Wunderground v.1.15,2013-05-12 17:34:00,
2013-05-12 10:40:00,80.5,30.2,29.98,SW,221,1.0,1.0,16,0.00,,,0.00,Wunderground v.1.15,2013-05-12 17:40:00,
2013-05-12 10:46:00,80.6,30.2,29.98,WSW,253,0.0,1.0,16,0.00,,,0.00,Wunderground v.1.15,2013-05-12 17:46:00,
2013-05-12 10:51:00,81.3,32.3,29.98,South,181,0.0,0.0,17,0.00,,,0.00,Wunderground v.1.15,2013-05-12 17:51:00,
2013-05-12 10:57:00,81.7,29.5,29.97,SSE,156,0.0,0.0,15,0.00,,,0.00,Wunderground v.1.15,2013-05-12 17:57:00,
2013-05-12 11:03:00,81.5,29.4,29.97,SE,131,0.0,0.0,15,0.00,,,0.00,Wunderground v.1.15,2013-05-12 18:03:00,
2013-05-12 11:09:00,81.6,31.0,29.97,East,101,0.0,0.0,16,0.00,,,0.00,Wunderground v.1.15,2013-05-12 18:09:00,
2013-05-12 11:15:00,81.9,31.3,29.97,SE,128,0.0,0.0,16,0.00,,,0.00,Wunderground v.1.15,2013-05-12 18:15:00,
2013-05-12 11:21:00,82.2,31.5,29.97,South,173,0.0,0.0,16,0.00,,,0.00,Wunderground v.1.15,2013-05-12 18:21:00,
2013-05-12 11:27:00,83.0,32.2,29.96,South,185,0.0,0.0,16,0.00,,,0.00,Wunderground v.1.15,2013-05-12 18:27:00,
2013-05-12 11:33:00,83.7,32.7,29.96,WSW,243,0.0,0.0,16,0.00,,,0.00,Wunderground v.1.15,2013-05-12 18:33:00,
2013-05-12 11:39:00,83.8,31.2,29.96,SW,214,0.0,0.0,15,0.00,,,0.00,Wunderground v.1.15,2013-05-12 18:39:00,
2013-05-12 11:45:00,83.7,31.1,29.96,SW,233,0.0,0.0,15,0.00,,,0.00,Wunderground v.1.15,2013-05-12 18:45:00,
2013-05-12 11:51:00,83.7,32.7,29.95,SSW,198,0.0,0.0,16,0.00,,,0.00,Wunderground v.1.15,2013-05-12 18:51:00,
2013-05-12 11:57:00,84.1,33.0,29.95,South,174,0.0,0.0,16,0.00,,,0.00,Wunderground v.1.15,2013-05-12 18:57:00,
2013-05-12 12:03:00,84.1,33.0,29.95,SW,231,0.0,0.0,16,0.00,,,0.00,Wunderground v.1.15,2013-05-12 19:03:00,
2013-05-12 12:08:00,83.5,32.6,29.95,SW,219,0.0,0.0,16,0.00,,,0.00,Wunderground v.1.15,2013-05-12 19:08:00,
2013-05-12 12:14:00,83.9,32.9,29.95,SSW,204,0.0,0.0,16,0.00,,,0.00,Wunderground v.1.15,2013-05-12 19:14:00,
2013-05-12 12:20:00,84.6,33.4,29.95,WSW,250,0.0,0.0,16,0.00,,,0.00,Wunderground v.1.15,2013-05-12 19:20:00,
2013-05-12 12:25:00,84.7,33.5,29.94,SW,224,0.0,0.0,16,0.00,,,0.00,Wunderground v.1.15,2013-05-12 19:25:00,
2013-05-12 12:31:00,85.0,33.8,29.94,South,169,0.0,0.0,16,0.00,,,0.00,Wunderground v.1.15,2013-05-12 19:31:00,
2013-05-12 12:37:00,85.8,32.8,29.94,SW,220,0.0,0.0,15,0.00,,,0.00,Wunderground v.1.15,2013-05-12 19:37:00,
2013-05-12 12:43:00,85.2,32.3,29.94,SW,224,0.0,0.0,15,0.00,,,0.00,Wunderground v.1.15,2013-05-12 19:43:00,
2013-05-12 12:49:00,85.4,32.5,29.93,WSW,255,0.0,0.0,15,0.00,,,0.00,Wunderground v.1.15,2013-05-12 19:49:00,
2013-05-12 12:54:00,85.5,32.6,29.93,SSW,197,0.0,0.0,15,0.00,,,0.00,Wunderground v.1.15,2013-05-12 19:54:00,
2013-05-12 13:00:00,85.6,32.6,29.92,SE,141,0.0,0.0,15,0.00,,,0.00,Wunderground v.1.15,2013-05-12 20:00:00,
2013-05-12 13:06:00,85.8,32.8,29.92,South,180,0.0,0.0,15,0.00,,,0.00,Wunderground v.1.15,2013-05-12 20:06:00,
2013-05-12 13:11:00,86.0,31.2,29.92,SW,219,0.0,0.0,14,0.00,,,0.00,Wunderground v.1.15,2013-05-12 20:11:00,
2013-05-12 13:17:00,86.2,31.4,29.91,SSW,203,0.0,0.0,14,0.00,,,0.00,Wunderground v.1.15,2013-05-12 20:17:00,
2013-05-12 13:23:00,85.9,27.4,29.91,SSW,208,0.0,0.0,12,0.00,,,0.00,Wunderground v.1.15,2013-05-12 20:23:00,
2013-05-12 13:29:00,86.2,29.6,29.91,SSW,202,0.0,0.0,13,0.00,,,0.00,Wunderground v.1.15,2013-05-12 20:29:00,
2013-05-12 13:35:00,86.0,31.2,29.91,South,188,0.0,0.0,14,0.00,,,0.00,Wunderground v.1.15,2013-05-12 20:35:00,
2013-05-12 13:41:00,86.5,29.8,29.91,SW,216,0.0,0.0,13,0.00,,,0.00,Wunderground v.1.15,2013-05-12 20:41:00,
2013-05-12 13:46:00,86.8,30.0,29.90,SW,232,0.0,0.0,13,0.00,,,0.00,Wunderground v.1.15,2013-05-12 20:46:00,
2013-05-12 13:52:00,86.5,29.8,29.90,SW,223,0.0,0.0,13,0.00,,,0.00,Wunderground v.1.15,2013-05-12 20:52:00,
2013-05-12 13:58:00,87.8,28.9,29.90,South,176,0.0,0.0,12,0.00,,,0.00,Wunderground v.1.15,2013-05-12 20:58:00,
2013-05-12 14:04:00,88.0,26.9,29.90,SSE,168,0.0,0.0,11,0.00,,,0.00,Wunderground v.1.15,2013-05-12 21:04:00,
2013-05-12 14:10:00,87.9,26.8,29.89,SE,143,0.0,0.0,11,0.00,,,0.00,Wunderground v.1.15,2013-05-12 21:10:00,
2013-05-12 14:16:00,87.5,26.5,29.89,SW,226,0.0,0.0,11,0.00,,,0.00,Wunderground v.1.15,2013-05-12 21:16:00,
2013-05-12 14:22:00,87.3,26.4,29.89,South,184,0.0,0.0,11,0.00,,,0.00,Wunderground v.1.15,2013-05-12 21:22:00,
2013-05-12 14:28:00,87.3,26.4,29.88,SE,139,0.0,0.0,11,0.00,,,0.00,Wunderground v.1.15,2013-05-12 21:28:00,
2013-05-12 14:34:00,87.3,26.4,29.88,SSW,193,0.0,0.0,11,0.00,,,0.00,Wunderground v.1.15,2013-05-12 21:34:00,
2013-05-12 14:39:00,87.4,26.4,29.88,NE,48,0.0,0.0,11,0.00,,,0.00,Wunderground v.1.15,2013-05-12 21:39:00,
2013-05-12 14:45:00,87.9,26.8,29.88,South,179,0.0,0.0,11,0.00,,,0.00,Wunderground v.1.15,2013-05-12 21:45:00,
2013-05-12 14:51:00,88.5,27.3,29.87,South,181,0.0,0.0,11,0.00,,,0.00,Wunderground v.1.15,2013-05-12 21:51:00,
2013-05-12 14:57:00,88.2,24.7,29.87,SSE,158,0.0,0.0,10,0.00,,,0.00,Wunderground v.1.15,2013-05-12 21:57:00,
2013-05-12 15:03:00,88.1,24.7,29.87,SE,132,0.0,0.0,10,0.00,,,0.00,Wunderground v.1.15,2013-05-12 22:03:00,
2013-05-12 15:09:00,88.4,24.9,29.87,SSE,161,0.0,0.0,10,0.00,,,0.00,Wunderground v.1.15,2013-05-12 22:09:00,
2013-05-12 15:15:00,88.3,27.1,29.86,WSW,255,0.0,0.0,11,0.00,,,0.00,Wunderground v.1.15,2013-05-12 22:15:00,
2013-05-12 15:21:00,88.8,25.2,29.86,SSW,212,0.0,0.0,10,0.00,,,0.00,Wunderground v.1.15,2013-05-12 22:21:00,
2013-05-12 15:27:00,89.1,27.7,29.86,SSW,205,0.0,0.0,11,0.00,,,0.00,Wunderground v.1.15,2013-05-12 22:27:00,
2013-05-12 15:33:00,89.2,25.5,29.85,SSE,160,0.0,0.0,10,0.00,,,0.00,Wunderground v.1.15,2013-05-12 22:33:00,
2013-05-12 15:39:00,88.1,27.0,29.85,SSW,203,0.0,0.0,11,0.00,,,0.00,Wunderground v.1.15,2013-05-12 22:39:00,
2013-05-12 15:45:00,88.4,27.2,29.85,South,191,0.0,0.0,11,0.00,,,0.00,Wunderground v.1.15,2013-05-12 22:45:00,
2013-05-12 15:50:00,88.6,29.5,29.85,SW,233,0.0,0.0,12,0.00,,,0.00,Wunderground v.1.15,2013-05-12 22:50:00,
2013-05-12 15:56:00,88.6,27.3,29.85,SW,219,0.0,0.0,11,0.00,,,0.00,Wunderground v.1.15,2013-05-12 22:56:00,
2013-05-12 16:02:00,88.6,29.5,29.84,SSW,212,0.0,0.0,12,0.00,,,0.00,Wunderground v.1.15,2013-05-12 23:02:00,
2013-05-12 16:08:00,88.6,29.5,29.84,South,176,0.0,0.0,12,0.00,,,0.00,Wunderground v.1.15,2013-05-12 23:08:00,
2013-05-12 16:14:00,89.3,27.9,29.84,SW,230,0.0,0.0,11,0.00,,,0.00,Wunderground v.1.15,2013-05-12 23:14:00,
2013-05-12 16:20:00,88.5,27.3,29.84,WSW,255,0.0,0.0,11,0.00,,,0.00,Wunderground v.1.15,2013-05-12 23:20:00,
2013-05-12 16:26:00,87.9,26.8,29.84,West,266,0.0,0.0,11,0.00,,,0.00,Wunderground v.1.15,2013-05-12 23:26:00,
2013-05-12 16:32:00,88.3,27.1,29.84,WSW,240,0.0,0.0,11,0.00,,,0.00,Wunderground v.1.15,2013-05-12 23:32:00,
2013-05-12 16:38:00,87.8,28.9,29.84,South,169,0.0,0.0,12,0.00,,,0.00,Wunderground v.1.15,2013-05-12 23:38:00,
2013-05-12 16:44:00,87.8,28.9,29.84,SSW,196,0.0,0.0,12,0.00,,,0.00,Wunderground v.1.15,2013-05-12 23:44:00,
2013-05-12 16:50:00,88.3,29.2,29.83,SSE,165,0.0,0.0,12,0.00,,,0.00,Wunderground v.1.15,2013-05-12 23:50:00,
2013-05-12 16:56:00,88.3,29.2,29.83,SSW,196,0.0,0.0,12,0.00,,,0.00,Wunderground v.1.15,2013-05-12 23:56:00,
2013-05-12 17:02:00,88.4,29.3,29.83,SSE,152,0.0,0.0,12,0.00,,,0.00,Wunderground v.1.15,2013-05-13 00:02:00,
2013-05-12 17:08:00,88.3,29.2,29.83,SE,140,0.0,0.0,12,0.00,,,0.00,Wunderground v.1.15,2013-05-13 00:08:00,
2013-05-12 17:14:00,88.4,29.3,29.83,SSW,207,0.0,0.0,12,0.00,,,0.00,Wunderground v.1.15,2013-05-13 00:14:00,
2013-05-12 17:19:00,88.8,29.6,29.83,West,261,0.0,0.0,12,0.00,,,0.00,Wunderground v.1.15,2013-05-13 00:19:00,
2013-05-12 17:25:00,88.7,29.6,29.82,SSW,203,0.0,0.0,12,0.00,,,0.00,Wunderground v.1.15,2013-05-13 00:25:00,
2013-05-12 17:31:00,88.5,31.4,29.82,SW,221,0.0,0.0,13,0.00,,,0.00,Wunderground v.1.15,2013-05-13 00:31:00,
2013-05-12 17:37:00,88.5,29.4,29.82,SW,215,0.0,0.0,12,0.00,,,0.00,Wunderground v.1.15,2013-05-13 00:37:00,
2013-05-12 17:43:00,88.2,33.0,29.82,SSW,200,0.0,0.0,14,0.00,,,0.00,Wunderground v.1.15,2013-05-13 00:43:00,
2013-05-12 17:49:00,88.0,31.0,29.82,WSW,242,0.0,0.0,13,0.00,,,0.00,Wunderground v.1.15,2013-05-13 00:49:00,
2013-05-12 17:55:00,87.7,30.7,29.82,WSW,240,0.0,0.0,13,0.00,,,0.00,Wunderground v.1.15,2013-05-13 00:55:00,
2013-05-12 18:00:00,87.9,30.9,29.82,WSW,248,0.0,0.0,13,0.00,,,0.00,Wunderground v.1.15,2013-05-13 01:00:00,
2013-05-12 18:05:00,87.7,30.7,29.81,SW,236,0.0,0.0,13,0.00,,,0.00,Wunderground v.1.15,2013-05-13 01:05:00,
2013-05-12 18:11:00,87.1,30.3,29.81,WSW,245,0.0,0.0,13,0.00,,,0.00,Wunderground v.1.15,2013-05-13 01:11:00,
2013-05-12 18:17:00,87.1,32.1,29.81,SW,223,0.0,0.0,14,0.00,,,0.00,Wunderground v.1.15,2013-05-13 01:17:00,
2013-05-12 18:23:00,86.9,32.0,29.81,SW,221,0.0,0.0,14,0.00,,,0.00,Wunderground v.1.15,2013-05-13 01:23:00,
2013-05-12 18:29:00,86.6,31.7,29.81,West,266,0.0,0.0,14,0.00,,,0.00,Wunderground v.1.15,2013-05-13 01:29:00,
2013-05-12 18:35:00,86.3,31.5,29.81,West,264,0.0,0.0,14,0.00,,,0.00,Wunderground v.1.15,2013-05-13 01:35:00,
2013-05-12 18:41:00,86.1,31.3,29.81,WSW,247,0.0,0.0,14,0.00,,,0.00,Wunderground v.1.15,2013-05-13 01:41:00,
2013-05-12 18:47:00,85.9,31.2,29.81,WSW,250,0.0,0.0,14,0.00,,,0.00,Wunderground v.1.15,2013-05-13 01:47:00,
2013-05-12 18:52:00,85.6,30.9,29.81,WSW,257,0.0,0.0,14,0.00,,,0.00,Wunderground v.1.15,2013-05-13 01:52:00,
2013-05-12 18:58:00,85.5,30.8,29.81,West,263,0.0,0.0,14,0.00,,,0.00,Wunderground v.1.15,2013-05-13 01:58:00,
2013-05-12 19:04:00,85.3,32.4,29.81,SW,236,0.0,0.0,15,0.00,,,0.00,Wunderground v.1.15,2013-05-13 02:04:00,
2013-05-12 19:10:00,84.7,31.9,29.81,WSW,256,0.0,0.0,15,0.00,,,0.00,Wunderground v.1.15,2013-05-13 02:10:00,
2013-05-12 19:16:00,84.6,31.8,29.81,WSW,248,0.0,0.0,15,0.00,,,0.00,Wunderground v.1.15,2013-05-13 02:16:00,
2013-05-12 19:22:00,84.2,31.5,29.81,WSW,247,0.0,0.0,15,0.00,,,0.00,Wunderground v.1.15,2013-05-13 02:22:00,
2013-05-12 19:28:00,83.7,32.7,29.81,WSW,248,0.0,0.0,16,0.00,,,0.00,Wunderground v.1.15,2013-05-13 02:28:00,
2013-05-12 19:34:00,83.1,32.2,29.82,WSW,248,0.0,0.0,16,0.00,,,0.00,Wunderground v.1.15,2013-05-13 02:34:00,
2013-05-12 19:40:00,82.6,31.8,29.82,West,279,0.0,0.0,16,0.00,,,0.00,Wunderground v.1.15,2013-05-13 02:40:00,
2013-05-12 19:46:00,81.9,32.8,29.82,WSW,252,0.0,0.0,17,0.00,,,0.00,Wunderground v.1.15,2013-05-13 02:46:00,
2013-05-12 19:52:00,81.4,33.8,29.82,WNW,293,0.0,0.0,18,0.00,,,0.00,Wunderground v.1.15,2013-05-13 02:52:00,
2013-05-12 19:58:00,81.0,33.5,29.82,WSW,257,0.0,0.0,18,0.00,,,0.00,Wunderground v.1.15,2013-05-13 02:58:00,
2013-05-12 20:04:00,80.5,33.1,29.82,West,262,0.0,0.0,18,0.00,,,0.00,Wunderground v.1.15,2013-05-13 03:04:00,
2013-05-12 20:10:00,80.1,34.1,29.82,WSW,257,0.0,0.0,19,0.00,,,0.00,Wunderground v.1.15,2013-05-13 03:10:00,
2013-05-12 20:16:00,79.7,33.8,29.82,WSW,242,0.0,0.0,19,0.00,,,0.00,Wunderground v.1.15,2013-05-13 03:16:00,
2013-05-12 20:22:00,79.2,33.4,29.83,WSW,252,0.0,0.0,19,0.00,,,0.00,Wunderground v.1.15,2013-05-13 03:22:00,
2013-05-12 20:28:00,78.8,34.3,29.83,West,264,0.0,0.0,20,0.00,,,0.00,Wunderground v.1.15,2013-05-13 03:28:00,
2013-05-12 20:34:00,78.4,34.0,29.83,West,274,0.0,0.0,20,0.00,,,0.00,Wunderground v.1.15,2013-05-13 03:34:00,
2013-05-12 20:39:00,78.1,33.7,29.83,WNW,288,0.0,0.0,20,0.00,,,0.00,Wunderground v.1.15,2013-05-13 03:39:00,
2013-05-12 20:45:00,77.9,33.6,29.83,West,276,0.0,0.0,20,0.00,,,0.00,Wunderground v.1.15,2013-05-13 03:45:00,
2013-05-12 20:51:00,77.4,34.4,29.84,West,276,0.0,0.0,21,0.00,,,0.00,Wunderground v.1.15,2013-05-13 03:51:00,
2013-05-12 20:57:00,77.1,34.1,29.84,WSW,254,0.0,0.0,21,0.00,,,0.00,Wunderground v.1.15,2013-05-13 03:57:00,
2013-05-12 21:01:00,76.9,34.0,29.84,West,272,0.0,0.0,21,0.00,,,0.00,Wunderground v.1.15,2013-05-13 04:01:00,
2013-05-12 21:02:00,76.9,34.0,29.84,West,262,0.0,0.0,21,0.00,,,0.00,Wunderground v.1.15,2013-05-13 04:02:00,
2013-05-12 21:04:00,76.9,34.0,29.84,West,273,0.0,0.0,21,0.00,,,0.00,Wunderground v.1.15,2013-05-13 04:04:00,
2013-05-12 21:06:00,76.8,33.9,29.84,WSW,250,0.0,0.0,21,0.00,,,0.00,Wunderground v.1.15,2013-05-13 04:06:00,
2013-05-12 21:07:00,76.7,33.8,29.84,WSW,255,0.0,0.0,21,0.00,,,0.00,Wunderground v.1.15,2013-05-13 04:07:00,
2013-05-12 21:12:00,76.5,33.6,29.84,West,259,0.0,0.0,21,0.00,,,0.00,Wunderground v.1.15,2013-05-13 04:12:00,
2013-05-12 21:18:00,76.2,33.4,29.85,WSW,255,0.0,0.0,21,0.00,,,0.00,Wunderground v.1.15,2013-05-13 04:18:00,
2013-05-12 21:24:00,75.9,33.1,29.85,WNW,292,0.0,0.0,21,0.00,,,0.00,Wunderground v.1.15,2013-05-13 04:24:00,
2013-05-12 21:30:00,75.7,33.0,29.85,NW,311,0.0,0.0,21,0.00,,,0.00,Wunderground v.1.15,2013-05-13 04:30:00,
2013-05-12 21:36:00,75.2,32.6,29.85,WNW,299,0.0,0.0,21,0.00,,,0.00,Wunderground v.1.15,2013-05-13 04:36:00,
2013-05-12 21:42:00,74.9,32.3,29.85,WSW,244,0.0,0.0,21,0.00,,,0.00,Wunderground v.1.15,2013-05-13 04:42:00,
2013-05-12 21:48:00,74.6,33.2,29.86,West,278,0.0,0.0,22,0.00,,,0.00,Wunderground v.1.15,2013-05-13 04:48:00,
2013-05-12 21:54:00,74.4,33.1,29.86,NNW,343,0.0,0.0,22,0.00,,,0.00,Wunderground v.1.15,2013-05-13 04:54:00,
2013-05-12 22:00:00,74.4,31.9,29.86,WSW,243,0.0,0.0,21,0.00,,,0.00,Wunderground v.1.15,2013-05-13 05:00:00,
2013-05-12 22:05:00,74.3,31.8,29.86,WSW,257,0.0,0.0,21,0.00,,,0.00,Wunderground v.1.15,2013-05-13 05:05:00,
2013-05-12 22:11:00,74.1,31.6,29.86,WSW,248,0.0,0.0,21,0.00,,,0.00,Wunderground v.1.15,2013-05-13 05:11:00,
2013-05-12 22:17:00,73.6,32.4,29.86,West,274,0.0,0.0,22,0.00,,,0.00,Wunderground v.1.15,2013-05-13 05:17:00,
2013-05-12 22:22:00,72.9,32.9,29.86,West,259,0.0,0.0,23,0.00,,,0.00,Wunderground v.1.15,2013-05-13 05:22:00,
2013-05-12 22:28:00,72.6,32.7,29.86,WSW,245,0.0,0.0,23,0.00,,,0.00,Wunderground v.1.15,2013-05-13 05:28:00,
2013-05-12 22:34:00,72.5,32.6,29.86,WSW,247,0.0,0.0,23,0.00,,,0.00,Wunderground v.1.15,2013-05-13 05:34:00,
2013-05-12 22:40:00,72.6,31.5,29.87,WSW,245,0.0,0.0,22,0.00,,,0.00,Wunderground v.1.15,2013-05-13 05:40:00,
2013-05-12 22:46:00,72.5,31.5,29.87,WSW,250,0.0,0.0,22,0.00,,,0.00,Wunderground v.1.15,2013-05-13 05:46:00,
2013-05-12 22:52:00,72.1,31.1,29.87,WSW,255,0.0,0.0,22,0.00,,,0.00,Wunderground v.1.15,2013-05-13 05:52:00,
2013-05-12 22:58:00,72.5,31.5,29.87,WSW,240,0.0,0.0,22,0.00,,,0.00,Wunderground v.1.15,2013-05-13 05:58:00,
2013-05-12 23:04:00,72.9,30.6,29.87,WSW,238,0.0,0.0,21,0.00,,,0.00,Wunderground v.1.15,2013-05-13 06:04:00,
2013-05-12 23:10:00,73.1,30.8,29.87,West,259,0.0,0.0,21,0.00,,,0.00,Wunderground v.1.15,2013-05-13 06:10:00,
2013-05-12 23:16:00,73.3,31.0,29.87,West,269,0.0,0.0,21,0.00,,,0.00,Wunderground v.1.15,2013-05-13 06:16:00,
2013-05-12 23:22:00,73.0,30.7,29.87,West,273,0.0,0.0,21,0.00,,,0.00,Wunderground v.1.15,2013-05-13 06:22:00,
2013-05-12 23:28:00,72.8,30.6,29.87,West,268,0.0,0.0,21,0.00,,,0.00,Wunderground v.1.15,2013-05-13 06:28:00,
2013-05-12 23:34:00,72.5,30.3,29.87,WSW,253,0.0,0.0,21,0.00,,,0.00,Wunderground v.1.15,2013-05-13 06:34:00,
2013-05-12 23:40:00,72.5,30.3,29.87,WNW,285,0.0,0.0,21,0.00,,,0.00,Wunderground v.1.15,2013-05-13 06:40:00,
2013-05-12 23:46:00,71.9,29.8,29.87,WSW,256,0.0,0.0,21,0.00,,,0.00,Wunderground v.1.15,2013-05-13 06:46:00,
2013-05-12 23:52:00,71.4,30.5,29.87,West,274,0.0,0.0,22,0.00,,,0.00,Wunderground v.1.15,2013-05-13 06:52:00,
2013-05-12 23:58:00,70.6,29.9,29.87,WSW,255,0.0,0.0,22,0.00,,,0.00,Wunderground v.1.15,2013-05-13 06:58:00,